createdAt,value
2019-04-26T00:00:07.514Z,991.35
2019-04-26T00:01:07.546Z,991.27
2019-04-26T00:02:07.427Z,991.34
2019-04-26T00:03:06.626Z,991.43
2019-04-26T00:04:07.668Z,991.56
2019-04-26T00:05:06.689Z,991.67
2019-04-26T00:06:06.719Z,991.76
2019-04-26T00:07:06.749Z,991.76
2019-04-26T00:08:06.780Z,991.77
2019-04-26T00:09:06.810Z,991.76
2019-04-26T00:10:06.844Z,991.76
2019-04-26T00:11:06.876Z,991.76
2019-04-26T00:12:06.902Z,991.75
2019-04-26T00:13:06.993Z,991.77
2019-04-26T00:14:32.654Z,991.81
2019-04-26T00:15:07.010Z,991.83
2019-04-26T00:16:07.041Z,991.86
2019-04-26T00:17:07.074Z,991.88
2019-04-26T00:18:07.103Z,991.88
2019-04-26T00:19:07.135Z,991.90
2019-04-26T00:20:07.164Z,991.93
2019-04-26T00:21:07.199Z,991.93
2019-04-26T00:22:07.227Z,991.92
2019-04-26T00:23:07.257Z,991.90
2019-04-26T00:24:07.289Z,991.90
2019-04-26T00:25:07.321Z,991.92
2019-04-26T00:26:07.350Z,991.90
2019-04-26T00:27:07.382Z,991.86
2019-04-26T00:28:07.415Z,991.88
2019-04-26T00:29:07.443Z,991.85
2019-04-26T00:30:07.471Z,991.92
2019-04-26T00:31:07.505Z,991.97
2019-04-26T00:32:07.534Z,992.01
2019-04-26T00:33:07.670Z,992.06
2019-04-26T00:34:07.595Z,992.13
2019-04-26T00:35:07.627Z,992.18
2019-04-26T00:36:07.658Z,992.23
2019-04-26T00:37:07.689Z,992.30
2019-04-26T00:38:07.719Z,992.30
2019-04-26T00:39:07.751Z,992.24
2019-04-26T00:40:07.780Z,992.22
2019-04-26T00:41:07.812Z,992.11
2019-04-26T00:42:07.843Z,992.05
2019-04-26T00:43:07.874Z,992.00
2019-04-26T00:44:07.903Z,991.95
2019-04-26T00:45:07.935Z,991.96
2019-04-26T00:46:07.968Z,991.95
2019-04-26T00:47:07.998Z,991.95
2019-04-26T00:48:08.025Z,991.87
2019-04-26T00:49:08.061Z,991.84
2019-04-26T00:50:08.088Z,991.84
2019-04-26T00:51:08.120Z,991.82
2019-04-26T00:52:08.149Z,991.82
2019-04-26T00:53:08.167Z,991.84
2019-04-26T00:54:08.211Z,991.84
2019-04-26T00:55:08.242Z,991.90
2019-04-26T00:56:08.260Z,991.92
2019-04-26T00:57:08.303Z,992.04
2019-04-26T00:58:08.324Z,992.02
2019-04-26T00:59:08.368Z,992.00
2019-04-26T01:00:08.382Z,992.04
2019-04-26T01:01:08.426Z,992.11
2019-04-26T01:02:08.456Z,992.13
2019-04-26T01:03:08.488Z,992.11
2019-04-26T01:04:08.502Z,992.08
2019-04-26T01:05:08.535Z,992.12
2019-04-26T01:06:08.570Z,992.13
2019-04-26T01:07:08.596Z,992.14
2019-04-26T01:08:08.627Z,992.13
2019-04-26T01:09:08.660Z,992.10
2019-04-26T01:10:08.688Z,992.08
2019-04-26T01:11:08.719Z,992.07
2019-04-26T01:12:08.749Z,992.07
2019-04-26T01:13:08.780Z,992.08
2019-04-26T01:14:08.811Z,992.07
2019-04-26T01:15:08.842Z,991.99
2019-04-26T01:16:08.874Z,991.86
2019-04-26T01:17:08.902Z,991.78
2019-04-26T01:18:08.935Z,991.75
2019-04-26T01:19:08.966Z,991.82
2019-04-26T01:20:08.998Z,991.84
2019-04-26T01:21:09.025Z,991.94
2019-04-26T01:22:09.056Z,992.02
2019-04-26T01:23:09.088Z,992.02
2019-04-26T01:24:09.118Z,991.99
2019-04-26T01:25:09.148Z,992.02
2019-04-26T01:26:09.179Z,991.93
2019-04-26T01:27:09.211Z,991.99
2019-04-26T01:28:09.240Z,992.01
2019-04-26T01:29:09.271Z,992.03
2019-04-26T01:30:09.303Z,991.99
2019-04-26T01:31:09.332Z,992.07
2019-04-26T01:32:09.366Z,992.07
2019-04-26T01:33:09.396Z,992.12
2019-04-26T01:34:09.440Z,992.10
2019-04-26T01:35:28.676Z,992.10
2019-04-26T01:36:13.094Z,992.07
2019-04-26T01:37:09.531Z,992.05
2019-04-26T01:38:09.563Z,992.07
2019-04-26T01:39:09.592Z,992.04
2019-04-26T01:40:09.625Z,992.02
2019-04-26T01:41:09.639Z,992.01
2019-04-26T01:42:09.684Z,992.02
2019-04-26T01:43:09.704Z,992.06
2019-04-26T01:44:09.733Z,992.04
2019-04-26T01:45:09.762Z,992.10
2019-04-26T01:46:09.792Z,992.13
2019-04-26T01:47:09.822Z,992.15
2019-04-26T01:48:09.857Z,992.19
2019-04-26T01:49:09.887Z,992.24
2019-04-26T01:50:09.916Z,992.30
2019-04-26T01:51:09.946Z,992.31
2019-04-26T01:52:09.978Z,992.27
2019-04-26T01:53:10.008Z,992.26
2019-04-26T01:54:10.040Z,992.21
2019-04-26T01:55:10.069Z,992.25
2019-04-26T01:56:10.100Z,992.26
2019-04-26T01:57:10.131Z,992.33
2019-04-26T01:58:10.161Z,992.38
2019-04-26T01:59:10.194Z,992.36
2019-04-26T02:00:10.222Z,992.37
2019-04-26T02:01:10.251Z,992.35
2019-04-26T02:02:10.283Z,992.36
2019-04-26T02:03:10.364Z,992.38
2019-04-26T02:04:10.342Z,992.39
2019-04-26T02:05:10.374Z,992.32
2019-04-26T02:06:10.405Z,992.37
2019-04-26T02:07:10.436Z,992.34
2019-04-26T02:08:10.465Z,992.37
2019-04-26T02:09:10.760Z,992.31
2019-04-26T02:10:10.541Z,992.30
2019-04-26T02:11:10.571Z,992.27
2019-04-26T02:12:10.601Z,992.19
2019-04-26T02:13:10.633Z,992.13
2019-04-26T02:14:10.663Z,992.17
2019-04-26T02:15:10.693Z,992.13
2019-04-26T02:16:10.726Z,992.10
2019-04-26T02:17:10.754Z,992.14
2019-04-26T02:18:10.784Z,992.22
2019-04-26T02:19:10.815Z,992.18
2019-04-26T02:20:10.845Z,992.21
2019-04-26T02:21:10.876Z,992.24
2019-04-26T02:22:10.907Z,992.22
2019-04-26T02:23:10.937Z,992.22
2019-04-26T02:24:10.967Z,992.17
2019-04-26T02:25:10.997Z,992.12
2019-04-26T02:26:11.030Z,992.08
2019-04-26T02:27:11.058Z,992.01
2019-04-26T02:28:11.088Z,991.93
2019-04-26T02:29:11.121Z,991.91
2019-04-26T02:30:11.150Z,991.93
2019-04-26T02:31:11.182Z,991.91
2019-04-26T02:32:11.212Z,991.86
2019-04-26T02:33:11.241Z,991.83
2019-04-26T02:34:11.272Z,991.81
2019-04-26T02:35:11.302Z,991.81
2019-04-26T02:36:11.334Z,991.80
2019-04-26T02:37:11.446Z,991.80
2019-04-26T02:38:11.391Z,991.79
2019-04-26T02:39:11.425Z,991.81
2019-04-26T02:40:11.454Z,991.85
2019-04-26T02:41:11.484Z,991.88
2019-04-26T02:42:11.530Z,991.91
2019-04-26T02:43:11.546Z,991.92
2019-04-26T02:44:11.575Z,991.97
2019-04-26T02:45:11.607Z,992.05
2019-04-26T02:46:11.638Z,992.05
2019-04-26T02:47:11.665Z,992.09
2019-04-26T02:48:11.695Z,992.11
2019-04-26T02:49:11.727Z,992.13
2019-04-26T02:50:11.758Z,992.13
2019-04-26T02:51:11.787Z,992.12
2019-04-26T02:52:11.924Z,992.12
2019-04-26T02:53:11.848Z,992.16
2019-04-26T02:54:11.882Z,992.14
2019-04-26T02:55:11.909Z,992.14
2019-04-26T02:56:11.939Z,992.14
2019-04-26T02:57:11.968Z,992.17
2019-04-26T02:58:12.000Z,992.18
2019-04-26T02:59:12.030Z,992.20
2019-04-26T03:00:12.057Z,992.21
2019-04-26T03:01:12.091Z,992.29
2019-04-26T03:02:12.123Z,992.32
2019-04-26T03:03:12.156Z,992.38
2019-04-26T03:04:12.184Z,992.39
2019-04-26T03:05:12.209Z,992.44
2019-04-26T03:06:12.242Z,992.47
2019-04-26T03:07:12.292Z,992.46
2019-04-26T03:08:12.301Z,992.49
2019-04-26T03:09:12.332Z,992.46
2019-04-26T03:10:12.362Z,992.46
2019-04-26T03:11:12.394Z,992.45
2019-04-26T03:12:12.472Z,992.42
2019-04-26T03:13:12.452Z,992.41
2019-04-26T03:14:12.483Z,992.39
2019-04-26T03:15:14.304Z,992.43
2019-04-26T03:16:12.545Z,992.45
2019-04-26T03:17:12.577Z,992.48
2019-04-26T03:18:12.603Z,992.44
2019-04-26T03:19:12.635Z,992.42
2019-04-26T03:20:12.664Z,992.43
2019-04-26T03:21:12.696Z,992.43
2019-04-26T03:22:12.727Z,992.47
2019-04-26T03:23:12.755Z,992.50
2019-04-26T03:24:12.787Z,992.53
2019-04-26T03:25:12.818Z,992.51
2019-04-26T03:26:12.847Z,992.57
2019-04-26T03:27:12.881Z,992.53
2019-04-26T03:28:12.908Z,992.50
2019-04-26T03:29:12.952Z,992.53
2019-04-26T03:30:22.891Z,992.53
2019-04-26T03:31:12.999Z,992.48
2019-04-26T03:32:16.708Z,992.45
2019-04-26T03:33:13.148Z,992.41
2019-04-26T03:34:13.295Z,992.42
2019-04-26T03:35:13.165Z,992.40
2019-04-26T03:36:13.157Z,992.40
2019-04-26T03:37:20.871Z,992.41
2019-04-26T03:38:13.209Z,992.42
2019-04-26T03:39:13.222Z,992.46
2019-04-26T03:40:13.268Z,992.53
2019-04-26T03:41:13.303Z,992.60
2019-04-26T03:42:13.323Z,992.63
2019-04-26T03:43:13.348Z,992.71
2019-04-26T03:44:13.371Z,992.82
2019-04-26T03:45:13.413Z,992.87
2019-04-26T03:46:13.449Z,992.90
2019-04-26T03:47:13.464Z,992.90
2019-04-26T03:48:13.495Z,992.91
2019-04-26T03:49:13.523Z,992.94
2019-04-26T03:50:13.579Z,992.95
2019-04-26T03:51:13.583Z,992.96
2019-04-26T03:52:13.614Z,992.97
2019-04-26T03:53:13.649Z,992.97
2019-04-26T03:54:13.671Z,993.04
2019-04-26T03:55:13.701Z,993.06
2019-04-26T03:56:13.732Z,993.08
2019-04-26T03:57:14.028Z,993.08
2019-04-26T03:58:13.797Z,993.11
2019-04-26T03:59:13.823Z,993.13
2019-04-26T04:00:13.851Z,993.14
2019-04-26T04:01:13.880Z,993.22
2019-04-26T04:02:13.915Z,993.22
2019-04-26T04:03:13.943Z,993.26
2019-04-26T04:04:13.970Z,993.28
2019-04-26T04:05:14.002Z,993.28
2019-04-26T04:06:14.038Z,993.38
2019-04-26T04:07:14.059Z,993.37
2019-04-26T04:08:14.089Z,993.42
2019-04-26T04:09:17.854Z,993.43
2019-04-26T04:10:14.149Z,993.48
2019-04-26T04:11:14.182Z,993.50
2019-04-26T04:12:14.234Z,993.47
2019-04-26T04:13:14.240Z,993.57
2019-04-26T04:14:14.445Z,993.56
2019-04-26T04:15:14.299Z,993.58
2019-04-26T04:16:14.328Z,993.62
2019-04-26T04:17:14.361Z,993.62
2019-04-26T04:18:14.388Z,993.66
2019-04-26T04:19:14.429Z,993.69
2019-04-26T04:20:14.450Z,993.64
2019-04-26T04:21:14.478Z,993.65
2019-04-26T04:22:14.506Z,993.58
2019-04-26T04:23:14.538Z,993.59
2019-04-26T04:24:14.570Z,993.49
2019-04-26T04:28:14.685Z,993.49
2019-04-26T04:29:14.714Z,993.51
2019-04-26T04:30:17.785Z,993.53
2019-04-26T04:31:16.612Z,993.47
2019-04-26T04:32:15.215Z,993.52
2019-04-26T04:35:15.298Z,993.55
2019-04-26T04:37:15.157Z,993.55
2019-04-26T04:38:15.186Z,993.56
2019-04-26T04:39:15.014Z,993.57
2019-04-26T04:46:16.153Z,993.69
2019-04-26T04:47:24.411Z,993.73
2019-04-26T04:48:15.484Z,993.74
2019-04-26T04:50:15.342Z,993.70
2019-04-26T04:53:15.429Z,993.72
2019-04-26T04:54:15.471Z,993.70
2019-04-26T04:55:15.491Z,993.72
2019-04-26T04:56:15.526Z,993.82
2019-04-26T04:57:15.549Z,993.89
2019-04-26T04:58:15.579Z,993.98
2019-04-26T04:59:15.617Z,993.96
2019-04-26T05:00:15.637Z,993.97
2019-04-26T05:01:15.667Z,994.01
2019-04-26T05:02:15.697Z,993.96
2019-04-26T05:03:15.725Z,993.94
2019-04-26T05:04:15.755Z,993.94
2019-04-26T05:05:15.786Z,993.98
2019-04-26T05:06:15.814Z,994.01
2019-04-26T05:07:15.845Z,994.05
2019-04-26T05:09:15.903Z,994.11
2019-04-26T05:10:15.932Z,994.16
2019-04-26T05:11:15.962Z,994.12
2019-04-26T05:12:15.991Z,994.12
2019-04-26T05:13:16.022Z,994.14
2019-04-26T05:14:16.053Z,994.13
2019-04-26T05:15:16.081Z,994.10
2019-04-26T05:16:16.110Z,994.10
2019-04-26T05:17:16.139Z,994.06
2019-04-26T05:18:16.169Z,994.00
2019-04-26T05:19:16.199Z,993.99
2019-04-26T05:20:16.227Z,994.00
2019-04-26T05:21:16.257Z,994.01
2019-04-26T05:22:16.287Z,994.04
2019-04-26T05:23:16.317Z,994.10
2019-04-26T05:24:16.345Z,994.16
2019-04-26T05:25:16.377Z,994.13
2019-04-26T05:26:16.425Z,994.16
2019-04-26T05:27:16.443Z,994.18
2019-04-26T05:28:16.493Z,994.20
2019-04-26T05:29:16.493Z,994.26
2019-04-26T05:30:16.523Z,994.28
2019-04-26T05:31:16.553Z,994.36
2019-04-26T05:32:16.584Z,994.49
2019-04-26T05:33:16.639Z,994.53
2019-04-26T05:34:16.641Z,994.63
2019-04-26T05:35:16.672Z,994.63
2019-04-26T05:36:16.702Z,994.68
2019-04-26T05:37:16.730Z,994.65
2019-04-26T05:38:18.534Z,994.61
2019-04-26T05:39:16.794Z,994.52
2019-04-26T05:40:16.820Z,994.53
2019-04-26T05:41:16.850Z,994.62
2019-04-26T05:42:16.879Z,994.67
2019-04-26T05:43:16.908Z,994.77
2019-04-26T05:44:17.139Z,994.81
2019-04-26T05:45:16.968Z,994.80
2019-04-26T05:46:16.996Z,994.79
2019-04-26T05:47:17.026Z,994.77
2019-04-26T05:48:17.056Z,994.74
2019-04-26T05:49:17.085Z,994.74
2019-04-26T05:50:17.125Z,994.72
2019-04-26T05:51:17.143Z,994.74
2019-04-26T05:52:17.173Z,994.75
2019-04-26T05:53:17.207Z,994.68
2019-04-26T05:54:17.233Z,994.71
2019-04-26T05:55:17.262Z,994.72
2019-04-26T05:56:17.291Z,994.70
2019-04-26T05:57:17.328Z,994.72
2019-04-26T05:58:17.349Z,994.76
2019-04-26T05:59:17.380Z,994.82
2019-04-26T06:00:17.408Z,994.87
2019-04-26T06:01:17.438Z,994.90
2019-04-26T06:02:17.468Z,994.98
2019-04-26T06:03:17.498Z,994.98
2019-04-26T06:04:17.527Z,994.94
2019-04-26T06:05:17.559Z,994.93
2019-04-26T06:06:17.586Z,994.93
2019-04-26T06:07:17.618Z,994.92
2019-04-26T06:08:17.644Z,994.94
2019-04-26T06:09:17.674Z,994.94
2019-04-26T06:10:17.717Z,994.93
2019-04-26T06:11:17.748Z,995.00
2019-04-26T06:12:17.790Z,995.07
2019-04-26T06:13:17.793Z,995.08
2019-04-26T06:14:17.820Z,995.14
2019-04-26T06:15:17.850Z,995.07
2019-04-26T06:16:17.879Z,995.02
2019-04-26T06:17:17.910Z,994.96
2019-04-26T06:18:17.940Z,994.89
2019-04-26T06:19:17.970Z,994.91
2019-04-26T06:20:22.991Z,994.88
2019-04-26T06:21:18.028Z,994.89
2019-04-26T06:22:18.057Z,994.95
2019-04-26T06:23:18.088Z,994.99
2019-04-26T06:24:18.115Z,995.02
2019-04-26T06:25:18.147Z,995.05
2019-04-26T06:26:18.176Z,995.08
2019-04-26T06:27:18.205Z,995.10
2019-04-26T06:28:18.233Z,995.19
2019-04-26T06:29:18.263Z,995.21
2019-04-26T06:30:18.296Z,995.21
2019-04-26T06:31:18.324Z,995.20
2019-04-26T06:32:18.381Z,995.24
2019-04-26T06:33:18.382Z,995.20
2019-04-26T06:34:18.412Z,995.21
2019-04-26T06:35:20.119Z,995.19
2019-04-26T06:36:18.485Z,995.21
2019-04-26T06:37:18.501Z,995.15
2019-04-26T06:38:18.531Z,995.14
2019-04-26T06:39:18.561Z,995.14
2019-04-26T06:40:18.594Z,995.17
2019-04-26T06:41:21.383Z,995.12
2019-04-26T06:42:18.650Z,995.12
2019-04-26T06:43:18.681Z,995.15
2019-04-26T06:44:18.709Z,995.17
2019-04-26T06:45:18.743Z,995.23
2019-04-26T06:46:18.769Z,995.24
2019-04-26T06:47:18.799Z,995.23
2019-04-26T06:48:18.829Z,995.22
2019-04-26T06:49:18.862Z,995.21
2019-04-26T06:50:18.888Z,995.27
2019-04-26T06:51:24.500Z,995.26
2019-04-26T06:52:18.947Z,995.32
2019-04-26T06:53:18.980Z,995.35
2019-04-26T06:54:19.079Z,995.34
2019-04-26T06:55:19.040Z,995.36
2019-04-26T06:56:19.140Z,995.39
2019-04-26T06:57:19.098Z,995.42
2019-04-26T06:58:19.128Z,995.46
2019-04-26T06:59:19.165Z,995.44
2019-04-26T07:00:19.199Z,995.48
2019-04-26T07:01:19.218Z,995.52
2019-04-26T07:02:19.247Z,995.56
2019-04-26T07:03:19.277Z,995.57
2019-04-26T07:04:19.309Z,995.59
2019-04-26T07:05:19.336Z,995.57
2019-04-26T07:06:19.369Z,995.60
2019-04-26T07:07:19.397Z,995.60
2019-04-26T07:08:19.426Z,995.65
2019-04-26T07:09:19.455Z,995.68
2019-04-26T07:10:19.488Z,995.76
2019-04-26T07:11:19.516Z,995.75
2019-04-26T07:12:19.545Z,995.78
2019-04-26T07:13:19.576Z,995.80
2019-04-26T07:14:19.615Z,995.81
2019-04-26T07:15:28.474Z,995.81
2019-04-26T07:16:23.171Z,995.82
2019-04-26T07:17:19.700Z,995.87
2019-04-26T07:18:19.725Z,995.88
2019-04-26T07:19:19.757Z,995.89
2019-04-26T07:20:19.785Z,995.82
2019-04-26T07:21:19.815Z,995.83
2019-04-26T07:22:19.843Z,995.85
2019-04-26T07:23:19.874Z,995.88
2019-04-26T07:24:19.903Z,995.92
2019-04-26T07:25:19.935Z,995.91
2019-04-26T07:26:19.964Z,995.97
2019-04-26T07:27:19.995Z,995.95
2019-04-26T07:28:20.070Z,995.91
2019-04-26T07:29:20.054Z,995.87
2019-04-26T07:30:21.909Z,995.92
2019-04-26T07:31:20.116Z,995.92
2019-04-26T07:32:20.183Z,995.97
2019-04-26T07:33:20.173Z,995.94
2019-04-26T07:34:20.204Z,995.91
2019-04-26T07:35:20.325Z,995.95
2019-04-26T07:36:20.268Z,995.96
2019-04-26T07:37:20.303Z,995.96
2019-04-26T07:38:20.367Z,995.92
2019-04-26T07:39:20.871Z,995.95
2019-04-26T07:40:20.385Z,996.00
2019-04-26T07:41:20.417Z,995.96
2019-04-26T07:42:20.446Z,996.00
2019-04-26T07:43:20.475Z,996.03
2019-04-26T07:44:20.505Z,996.01
2019-04-26T07:45:20.535Z,996.00
2019-04-26T07:46:20.565Z,996.00
2019-04-26T07:47:20.615Z,996.03
2019-04-26T07:48:20.641Z,996.07
2019-04-26T07:49:20.658Z,996.16
2019-04-26T07:50:20.686Z,996.19
2019-04-26T07:51:20.717Z,996.25
2019-04-26T07:52:20.749Z,996.30
2019-04-26T07:53:20.776Z,996.24
2019-04-26T07:54:20.808Z,996.23
2019-04-26T07:55:20.839Z,996.18
2019-04-26T07:56:20.866Z,996.19
2019-04-26T07:57:20.897Z,996.26
2019-04-26T07:58:20.929Z,996.17
2019-04-26T07:59:20.959Z,996.21
2019-04-26T08:00:20.988Z,996.20
2019-04-26T08:01:21.019Z,996.18
2019-04-26T08:02:21.054Z,996.21
2019-04-26T08:03:21.080Z,996.13
2019-04-26T08:04:21.109Z,996.08
2019-04-26T08:05:21.138Z,996.06
2019-04-26T08:06:21.173Z,996.01
2019-04-26T08:07:21.200Z,995.97
2019-04-26T08:08:21.229Z,995.99
2019-04-26T08:09:26.916Z,995.98
2019-04-26T08:10:21.290Z,995.98
2019-04-26T08:11:21.322Z,996.04
2019-04-26T08:12:21.356Z,996.06
2019-04-26T08:13:21.381Z,996.04
2019-04-26T08:14:21.542Z,996.03
2019-04-26T08:15:21.443Z,996.02
2019-04-26T08:16:21.487Z,996.02
2019-04-26T08:17:21.503Z,996.02
2019-04-26T08:18:21.535Z,995.98
2019-04-26T08:19:21.569Z,996.06
2019-04-26T08:20:21.594Z,996.04
2019-04-26T08:21:21.626Z,996.05
2019-04-26T08:22:24.694Z,996.04
2019-04-26T08:23:39.316Z,996.03
2019-04-26T08:24:21.724Z,996.10
2019-04-26T08:25:21.750Z,996.08
2019-04-26T08:26:21.779Z,996.07
2019-04-26T08:27:24.000Z,996.11
2019-04-26T08:28:21.847Z,996.15
2019-04-26T08:29:21.872Z,996.19
2019-04-26T08:30:22.885Z,996.20
2019-04-26T08:31:24.325Z,996.26
2019-04-26T08:32:21.969Z,996.27
2019-04-26T08:33:21.997Z,996.33
2019-04-26T08:34:28.909Z,996.37
2019-04-26T08:35:22.066Z,996.39
2019-04-26T08:36:23.306Z,996.41
2019-04-26T08:37:22.151Z,996.41
2019-04-26T08:38:22.888Z,996.44
2019-04-26T08:39:24.599Z,996.45
2019-04-26T08:40:30.091Z,996.47
2019-04-26T08:41:22.246Z,996.48
2019-04-26T08:42:24.907Z,996.46
2019-04-26T08:43:22.640Z,996.47
2019-04-26T08:44:22.335Z,996.45
2019-04-26T08:45:22.366Z,996.46
2019-04-26T08:46:22.398Z,996.45
2019-04-26T08:47:26.107Z,996.44
2019-04-26T08:48:27.622Z,996.38
2019-04-26T08:49:22.523Z,996.42
2019-04-26T08:50:22.564Z,996.43
2019-04-26T08:51:22.553Z,996.42
2019-04-26T08:52:22.598Z,996.43
2019-04-26T08:53:22.644Z,996.42
2019-04-26T08:54:22.679Z,996.43
2019-04-26T08:55:22.712Z,996.42
2019-04-26T08:56:22.721Z,996.45
2019-04-26T08:57:22.735Z,996.45
2019-04-26T08:58:22.787Z,996.44
2019-04-26T08:59:22.830Z,996.39
2019-04-26T09:00:22.862Z,996.42
2019-04-26T09:01:22.864Z,996.45
2019-04-26T09:02:22.917Z,996.45
2019-04-26T09:03:22.928Z,996.49
2019-04-26T09:04:22.982Z,996.49
2019-04-26T09:05:22.989Z,996.55
2019-04-26T09:06:23.107Z,996.59
2019-04-26T09:07:23.073Z,996.61
2019-04-26T09:08:23.073Z,996.61
2019-04-26T09:09:23.107Z,996.65
2019-04-26T09:10:23.135Z,996.69
2019-04-26T09:11:29.969Z,996.73
2019-04-26T09:12:23.669Z,996.74
2019-04-26T09:13:23.229Z,996.74
2019-04-26T09:14:23.262Z,996.78
2019-04-26T09:15:23.292Z,996.77
2019-04-26T09:16:23.371Z,996.81
2019-04-26T09:17:23.353Z,996.82
2019-04-26T09:18:23.387Z,996.78
2019-04-26T09:19:26.180Z,996.80
2019-04-26T09:20:29.726Z,996.79
2019-04-26T09:21:23.477Z,996.75
2019-04-26T09:22:26.470Z,996.80
2019-04-26T09:23:23.540Z,996.82
2019-04-26T09:24:25.063Z,996.79
2019-04-26T09:25:23.603Z,996.78
2019-04-26T09:26:23.695Z,996.80
2019-04-26T09:27:23.665Z,996.81
2019-04-26T09:28:23.697Z,996.78
2019-04-26T09:29:26.272Z,996.83
2019-04-26T09:30:33.697Z,996.85
2019-04-26T09:31:23.791Z,996.81
2019-04-26T09:32:24.174Z,996.89
2019-04-26T09:33:23.853Z,996.88
2019-04-26T09:34:23.883Z,996.87
2019-04-26T09:35:23.915Z,996.89
2019-04-26T09:36:23.945Z,996.89
2019-04-26T09:37:23.978Z,996.90
2019-04-26T09:38:24.011Z,996.90
2019-04-26T09:39:24.041Z,996.90
2019-04-26T09:40:24.075Z,996.89
2019-04-26T09:41:26.480Z,996.84
2019-04-26T09:42:24.134Z,996.83
2019-04-26T09:43:24.166Z,996.76
2019-04-26T09:44:24.199Z,996.74
2019-04-26T09:45:24.230Z,996.75
2019-04-26T09:46:24.261Z,996.74
2019-04-26T09:47:24.293Z,996.76
2019-04-26T09:48:24.325Z,996.68
2019-04-26T09:49:24.356Z,996.71
2019-04-26T09:50:24.388Z,996.72
2019-04-26T09:51:24.472Z,996.68
2019-04-26T09:52:24.451Z,996.73
2019-04-26T09:53:24.493Z,996.73
2019-04-26T09:55:34.735Z,996.71
2019-04-26T09:59:24.675Z,996.78
2019-04-26T10:00:24.708Z,996.87
2019-04-26T10:01:25.973Z,996.85
2019-04-26T10:02:24.771Z,996.86
2019-04-26T10:03:24.804Z,996.84
2019-04-26T10:04:24.833Z,996.89
2019-04-26T10:05:24.866Z,996.84
2019-04-26T10:06:26.175Z,996.87
2019-04-26T10:07:24.930Z,996.85
2019-04-26T10:08:24.961Z,996.84
2019-04-26T10:09:24.993Z,996.82
2019-04-26T10:10:25.027Z,996.84
2019-04-26T10:12:25.087Z,996.88
2019-04-26T10:15:11.331Z,996.82
2019-04-26T10:16:07.730Z,996.83
2019-04-26T10:17:07.763Z,996.84
2019-04-26T10:18:08.269Z,996.86
2019-04-26T10:19:07.876Z,996.85
2019-04-26T10:20:07.858Z,996.83
2019-04-26T10:21:07.887Z,996.87
2019-04-26T10:22:07.918Z,996.89
2019-04-26T10:23:07.951Z,996.86
2019-04-26T10:24:08.496Z,996.88
2019-04-26T10:25:16.076Z,996.93
2019-04-26T10:26:08.045Z,996.89
2019-04-26T10:27:08.075Z,996.87
2019-04-26T10:28:11.811Z,996.88
2019-04-26T10:29:08.141Z,996.95
2019-04-26T10:30:09.525Z,996.95
2019-04-26T10:31:08.201Z,996.93
2019-04-26T10:32:08.233Z,996.93
2019-04-26T10:33:08.265Z,996.94
2019-04-26T10:34:11.859Z,996.94
2019-04-26T10:35:08.327Z,996.94
2019-04-26T10:36:08.359Z,996.97
2019-04-26T10:37:08.391Z,997.01
2019-04-26T10:38:08.421Z,997.00
2019-04-26T10:39:08.454Z,997.04
2019-04-26T10:40:08.484Z,997.03
2019-04-26T10:41:08.516Z,997.06
2019-04-26T10:42:08.553Z,997.08
2019-04-26T10:43:08.663Z,997.07
2019-04-26T10:44:08.611Z,997.08
2019-04-26T10:45:10.502Z,997.06
2019-04-26T10:46:08.673Z,997.09
2019-04-26T10:47:08.704Z,997.08
2019-04-26T10:48:09.669Z,997.03
2019-04-26T10:49:11.992Z,997.02
2019-04-26T10:50:08.798Z,996.97
2019-04-26T10:51:08.959Z,996.93
2019-04-26T10:52:11.928Z,996.95
2019-04-26T10:53:08.894Z,996.96
2019-04-26T10:54:08.925Z,996.95
2019-04-26T10:55:12.206Z,996.97
2019-04-26T10:56:09.046Z,997.05
2019-04-26T10:57:09.020Z,997.00
2019-04-26T10:58:09.049Z,996.98
2019-04-26T10:59:09.783Z,997.02
2019-04-26T11:00:09.112Z,997.06
2019-04-26T11:01:09.146Z,997.10
2019-04-26T11:02:09.174Z,997.10
2019-04-26T11:03:09.207Z,997.07
2019-04-26T11:04:09.238Z,997.06
2019-04-26T11:05:11.618Z,997.04
2019-04-26T11:06:09.307Z,997.02
2019-04-26T11:07:09.333Z,997.01
2019-04-26T11:08:09.364Z,997.02
2019-04-26T11:09:09.399Z,997.00
2019-04-26T11:10:09.432Z,996.99
2019-04-26T11:11:09.460Z,996.98
2019-04-26T11:12:09.493Z,996.97
2019-04-26T11:13:09.524Z,996.98
2019-04-26T11:14:09.553Z,996.95
2019-04-26T11:15:09.586Z,996.94
2019-04-26T11:16:09.618Z,996.91
2019-04-26T11:17:11.615Z,996.92
2019-04-26T11:18:09.681Z,996.92
2019-04-26T11:19:09.713Z,996.92
2019-04-26T11:20:10.487Z,996.95
2019-04-26T11:21:09.784Z,996.89
2019-04-26T11:22:09.810Z,996.90
2019-04-26T11:23:11.836Z,996.84
2019-04-26T11:24:09.927Z,996.85
2019-04-26T11:25:09.909Z,996.85
2019-04-26T11:26:09.941Z,996.82
2019-04-26T11:27:11.180Z,996.80
2019-04-26T11:28:10.005Z,996.86
2019-04-26T11:29:10.039Z,996.84
2019-04-26T11:30:15.574Z,996.88
2019-04-26T11:31:10.106Z,996.83
2019-04-26T11:32:10.138Z,996.87
2019-04-26T11:33:10.970Z,996.86
2019-04-26T11:34:10.201Z,996.87
2019-04-26T11:35:10.234Z,996.91
2019-04-26T11:36:10.435Z,996.88
2019-04-26T11:37:13.381Z,996.87
2019-04-26T11:38:10.344Z,996.89
2019-04-26T11:39:10.367Z,996.88
2019-04-26T11:40:14.396Z,996.88
2019-04-26T11:41:10.441Z,996.88
2019-04-26T11:42:11.807Z,996.91
2019-04-26T11:43:10.499Z,996.92
2019-04-26T11:44:10.534Z,996.92
2019-04-26T11:45:14.492Z,996.92
2019-04-26T11:46:10.607Z,996.92
2019-04-26T11:47:10.632Z,996.88
2019-04-26T11:48:10.665Z,996.87
2019-04-26T11:49:10.699Z,996.90
2019-04-26T11:50:12.458Z,996.94
2019-04-26T11:51:10.766Z,996.94
2019-04-26T11:52:10.798Z,996.96
2019-04-26T11:53:11.280Z,996.92
2019-04-26T11:54:10.866Z,996.90
2019-04-26T11:55:10.900Z,996.94
2019-04-26T11:56:10.955Z,996.94
2019-04-26T11:57:11.975Z,996.96
2019-04-26T11:58:10.999Z,996.96
2019-04-26T11:59:11.033Z,996.95
2019-04-26T12:00:11.067Z,996.94
2019-04-26T12:01:11.116Z,996.92
2019-04-26T12:02:12.362Z,996.95
2019-04-26T12:03:14.242Z,996.92
2019-04-26T12:05:11.801Z,996.95
2019-04-26T12:07:11.505Z,996.96
2019-04-26T12:08:11.360Z,996.95
2019-04-26T12:09:15.000Z,996.94
2019-04-26T12:10:11.633Z,996.96
2019-04-26T12:11:18.239Z,996.97
2019-04-26T12:13:11.542Z,997.04
2019-04-26T12:14:20.149Z,997.05
2019-04-26T12:17:11.848Z,997.10
2019-04-26T12:18:11.728Z,997.09
2019-04-26T12:19:14.284Z,997.09
2019-04-26T12:21:11.802Z,997.17
2019-04-26T12:23:13.601Z,997.19
2019-04-26T12:24:11.881Z,997.20
2019-04-26T12:25:11.916Z,997.21
2019-04-26T12:26:11.950Z,997.24
2019-04-26T12:27:12.023Z,997.24
2019-04-26T12:28:12.048Z,997.20
2019-04-26T12:29:14.650Z,997.23
2019-04-26T12:30:12.086Z,997.21
2019-04-26T12:31:15.056Z,997.25
2019-04-26T12:32:12.154Z,997.26
2019-04-26T12:33:12.192Z,997.30
2019-04-26T12:34:14.201Z,997.38
2019-04-26T12:35:12.256Z,997.38
2019-04-26T12:36:13.333Z,997.43
2019-04-26T12:37:18.209Z,997.43
2019-04-26T12:38:12.382Z,997.49
2019-04-26T12:39:12.426Z,997.47
2019-04-26T12:40:12.463Z,997.50
2019-04-26T12:41:12.461Z,997.45
2019-04-26T12:42:13.784Z,997.47
2019-04-26T12:43:15.480Z,997.50
2019-04-26T12:44:12.567Z,997.47
2019-04-26T12:45:16.664Z,997.55
2019-04-26T12:46:14.198Z,997.50
2019-04-26T12:47:12.668Z,997.50
2019-04-26T12:48:15.658Z,997.54
2019-04-26T12:49:12.739Z,997.63
2019-04-26T12:50:12.792Z,997.56
2019-04-26T12:52:13.148Z,997.57
2019-04-26T12:53:13.305Z,997.59
2019-04-26T12:55:13.914Z,997.57
2019-04-26T12:56:12.983Z,997.60
2019-04-26T12:57:13.012Z,997.61
2019-04-26T12:58:15.118Z,997.65
2019-04-26T12:59:15.680Z,997.66
2019-04-26T13:00:13.113Z,997.64